createdAt,value
2023-03-23T16:00:20.853Z,99957.81
2023-03-23T16:03:08.462Z,99960.06
2023-03-23T16:15:11.191Z,99978.97
2023-03-23T16:17:44.215Z,100009.63
2023-03-23T16:20:12.898Z,100013.75
2023-03-23T16:22:39.336Z,100040.06
2023-03-23T16:25:11.240Z,100045.69
2023-03-23T16:27:40.807Z,100035.84
2023-03-23T16:30:33.708Z,100025.63
2023-03-23T16:33:00.348Z,100006.94
2023-03-23T16:35:26.826Z,99991.47
2023-03-23T16:38:07.111Z,100014.28
2023-03-23T16:40:35.072Z,100025.50
2023-03-23T16:43:01.584Z,100036.53
2023-03-23T16:45:37.371Z,100051.38
2023-03-23T16:48:04.688Z,100066.22
2023-03-23T16:50:31.648Z,100064.41
2023-03-23T16:52:59.041Z,100073.03
2023-03-23T16:55:27.066Z,100067.94
2023-03-23T16:58:05.316Z,100068.50
2023-03-23T17:00:38.763Z,100070.03
2023-03-23T17:03:05.936Z,100073.03
2023-03-23T17:05:32.668Z,100085.03
2023-03-23T17:07:59.056Z,100081.78
2023-03-23T17:10:27.409Z,100085.28
2023-03-23T17:12:54.735Z,100083.72
2023-03-23T17:15:21.238Z,100090.56
2023-03-23T17:17:47.702Z,100080.78
2023-03-23T17:20:14.061Z,100083.78
2023-03-23T17:25:08.457Z,100091.09
2023-03-23T17:27:35.786Z,100093.34
2023-03-23T17:30:02.862Z,100090.81
2023-03-23T17:32:29.315Z,100095.06
2023-03-23T17:34:55.716Z,100109.47
2023-03-23T17:37:22.138Z,100113.13
2023-03-23T17:39:48.680Z,100112.53
2023-03-23T17:42:15.421Z,100126.84
2023-03-23T17:44:42.008Z,100117.91
2023-03-23T17:47:11.680Z,100113.88
2023-03-23T17:49:38.288Z,100106.25
2023-03-23T17:52:04.842Z,100110.75
2023-03-23T17:54:31.252Z,100106.50
2023-03-23T17:56:58.698Z,100092.38
2023-03-23T17:59:26.053Z,100095.72
2023-03-23T18:01:53.518Z,100089.50
2023-03-23T18:04:20.260Z,100097.00
2023-03-23T18:06:47.211Z,100089.56
2023-03-23T18:09:16.256Z,100085.03
2023-03-23T18:11:45.875Z,100091.66
2023-03-23T18:17:38.055Z,100089.69
2023-03-23T18:20:05.312Z,100096.88
2023-03-23T18:22:31.839Z,100099.16
2023-03-23T18:24:58.486Z,100111.56
2023-03-23T18:27:24.941Z,100123.72
2023-03-23T18:29:51.399Z,100126.09
2023-03-23T18:32:19.792Z,100129.34
2023-03-23T18:34:46.972Z,100132.78
2023-03-23T18:37:13.661Z,100134.59
2023-03-23T18:39:40.196Z,100140.38
2023-03-23T18:42:06.850Z,100153.50
2023-03-23T18:44:33.305Z,100150.69
2023-03-23T18:46:59.759Z,100156.41
2023-03-23T19:07:18.068Z,100139.91
2023-03-23T19:12:51.807Z,100134.53
2023-03-23T19:15:18.692Z,100141.63
2023-03-23T19:17:59.222Z,100128.88
2023-03-23T19:21:06.429Z,100133.69
2023-03-23T19:23:44.937Z,100126.88
2023-03-23T19:26:19.513Z,100130.50
2023-03-23T19:29:25.501Z,100141.03
2023-03-23T19:31:53.819Z,100144.63
2023-03-23T19:34:43.020Z,100153.56
2023-03-23T19:37:27.430Z,100137.59
2023-03-23T19:40:35.647Z,100141.88
2023-03-23T19:43:09.038Z,100149.06
2023-03-23T19:46:02.992Z,100141.06
2023-03-23T19:48:51.102Z,100150.47
2023-03-23T19:51:52.538Z,100139.13
2023-03-23T19:54:44.465Z,100142.13
2023-03-23T19:57:38.197Z,100141.69
2023-03-23T20:00:24.485Z,100144.69
2023-03-23T20:03:28.517Z,100150.47
2023-03-23T20:06:20.637Z,100142.84
2023-03-23T20:09:06.230Z,100146.06
2023-03-23T20:11:41.497Z,100163.06
2023-03-23T20:14:53.122Z,100163.06
2023-03-23T21:30:06.852Z,100099.69
2023-03-23T21:32:33.545Z,100099.50
2023-03-23T21:35:12.538Z,100098.84
2023-03-23T21:37:39.369Z,100096.41
2023-03-23T21:40:07.154Z,100096.28
2023-03-23T21:42:51.795Z,100098.13
2023-03-23T21:45:36.381Z,100098.16
2023-03-23T21:48:02.851Z,100105.28
2023-03-23T21:54:06.545Z,100099.31
2023-03-23T21:56:33.003Z,100087.72
2023-03-23T21:59:01.280Z,100090.66
2023-03-23T22:01:30.189Z,100084.00
2023-03-23T22:03:57.858Z,100080.75
2023-03-23T22:06:26.840Z,100081.75
2023-03-23T22:08:53.784Z,100084.16
2023-03-23T22:11:21.722Z,100085.88
2023-03-23T22:20:47.241Z,100071.31
2023-03-23T22:23:13.650Z,100078.13
2023-03-23T22:25:45.968Z,100087.38
2023-03-23T22:28:12.452Z,100079.94
2023-03-23T22:30:38.902Z,100084.56
2023-03-23T22:33:05.390Z,100070.59
2023-03-23T22:35:33.826Z,100078.59
2023-03-23T22:38:02.783Z,100073.78
2023-03-23T22:40:30.245Z,100069.25
2023-03-23T22:42:56.676Z,100063.91
2023-03-23T22:45:27.345Z,100061.50
2023-03-23T22:47:53.999Z,100060.16
2023-03-23T22:50:21.577Z,100053.84
2023-03-23T22:52:48.201Z,100051.88
2023-03-23T22:55:14.611Z,100050.69
2023-03-23T22:57:41.163Z,100046.28
2023-03-23T23:00:08.288Z,100045.34
2023-03-23T23:02:36.537Z,100049.72
2023-03-23T23:07:43.365Z,100036.94
2023-03-23T23:10:09.888Z,100034.41
2023-03-23T23:12:36.497Z,100031.72
2023-03-23T23:15:04.456Z,100035.38
2023-03-23T23:17:34.769Z,100033.53
2023-03-23T23:20:13.777Z,100028.91
2023-03-23T23:23:00.196Z,100024.66
2023-03-23T23:25:53.125Z,100016.66
2023-03-23T23:28:24.390Z,100016.41
2023-03-23T23:31:10.552Z,100015.53
2023-03-23T23:34:00.744Z,100012.28
2023-03-23T23:36:52.602Z,100007.16
2023-03-23T23:39:31.576Z,100000.00
2023-03-23T23:41:58.163Z,100000.63
2023-03-23T23:44:27.836Z,100003.28
2023-03-23T23:46:57.458Z,100006.78
2023-03-23T23:49:28.768Z,99996.00
2023-03-23T23:51:56.417Z,99995.88
2023-03-23T23:54:22.930Z,99997.94
2023-03-23T23:56:54.877Z,99994.66
2023-03-23T23:59:39.011Z,99990.06
